Domov               UVHVVR             MKGP            O straneh              
ZDRAVSTVENO VARSTVO RASTLIN
  MREŽA AGROMET. POSTAJ
 ► PROGNOSTIČNA OBVESTILA
AGROMETEOROLOŠKI PODATKI -
ARSO
OBVLADOVANJE TVEGANJ ZARADI
NEUGODNIH VREMENSKIH RAZMER
  ► NARAVNE NESREČE
  ► SUŠA/MOČA
  ► NAMAKANJE
  ► ŽLED (gozdarstvo)
KARTOGRAFSKI PRIKAZI
SPLETNE POVEZAVE
PROJEKTI IN PUBLIKACIJE

AGROMETEOROLOŠKA MREŽA: VREMENSKE POSTAJE IN FENOLOŠKA OPAZOVANJA

Pregled podatkov za lokacijo Bilje FURS, meteorološka postaja 859083

Pregled senzorjev na lokaciji

ID Ime Zadnja
vrednost
Datum
zadnje
spremembe
Tip
senzorja
3958 Temperatura 2 m (°C) 5,91 °C 20.1.2018 11:30 50YA
3959 Relativna vlaga 2 m (% RH) 73,27 % RH 20.1.2018 11:30 50YA
3963 Omočenost lista (U) 0 U 20.1.2018 11:30 A730WET
3964 Padavine (mm) 0 mm 20.1.2018 11:30 Rain-O-Matic

Pregled podatkov zadnjih 24 ur

Zap.
št.
Datum in čas Bilje FURS
Omočenost
lista
Padavine Relativna
vlaga
2
m
Temperatura
2
m
0 20.1.2018 11:30 0 0 73,27 5,91
1 20.1.2018 11:00 0 0 76,82 5,24
2 20.1.2018 10:30 1 0 87,55 2,21
3 20.1.2018 10:00 10 0 93,26 1,02
4 20.1.2018 09:30 10 0 98,28 0,1
5 20.1.2018 09:00 1 0 99,98 -0,71
6 20.1.2018 08:30 1 0 100 -1,32
7 20.1.2018 08:00 0 0 100 -2,26
8 20.1.2018 07:30 0 0 100 -2,48
9 20.1.2018 07:00 0 0 99,98 -2,34
10 20.1.2018 06:30 0 0 99,67 -2,36
11 20.1.2018 06:00 0 0 99,31 -1,9
12 20.1.2018 05:30 0 0 98,71 -1,51
13 20.1.2018 05:00 1 0 97,92 -1,31
14 20.1.2018 04:30 1 0 96,18 -0,96
15 20.1.2018 04:00 1 0 96,1 -0,62
16 20.1.2018 03:30 1 0 96,4 -1,14
17 20.1.2018 03:00 1 0 92,85 -0,89
18 20.1.2018 02:30 1 0 89,51 0,37
19 20.1.2018 02:00 0 0 86,96 1,07
20 20.1.2018 01:30 0 0 84,05 1,81
21 20.1.2018 01:00 0 0 77,64 2,96
22 20.1.2018 00:30 0 0 66,37 5,55
23 20.1.2018 00:00 0 0 66,99 5,65
24 19.1.2018 23:30 0 0 68,74 5,58
25 19.1.2018 23:00 0 0 68,41 5,93
26 19.1.2018 22:30 0 0 68,79 6,29
27 19.1.2018 22:00 0 0 69,8 6,53
28 19.1.2018 21:30 0 0 72,38 6,63
29 19.1.2018 21:00 0 0 77,58 6,42
30 19.1.2018 20:30 1 0 97,43 4,1
31 19.1.2018 20:00 1 0 96,3 4,47
32 19.1.2018 19:30 1 0 93,73 5,33
33 19.1.2018 19:00 1 0 89,55 6,36
34 19.1.2018 18:30 1 0 98,75 6,25
35 19.1.2018 18:00 1 0 99,74 6,72
36 19.1.2018 17:30 1 0 100 6,75
37 19.1.2018 17:00 1 0 99,62 6,89
38 19.1.2018 16:30 0 0 98,62 7,25
39 19.1.2018 16:00 0 0 98,15 7,49
40 19.1.2018 15:30 0 0 97,8 7,51
41 19.1.2018 15:00 0 0 97,93 7,26
42 19.1.2018 14:30 1 0 97,94 7,14
43 19.1.2018 14:00 1 0 98,17 6,81
44 19.1.2018 13:30 0 0 95,61 6,79
45 19.1.2018 13:00 0 0 93,67 6,85
46 19.1.2018 12:30 0 0 94,35 6,77
© 2011 Ministrstvo za kmetijstvo, gozdarstvo in prehrano. Vse pravice pridržane.